Harold B Dodd — WDI4802 — position and weather

sailwx.info

Track history (hours):
 
Tides and Currents Weather Stations Pressure Air Temp Water Temp Dewpoint Dewpoint Depression Visibility Wind Speed Wind Dir Waves Ship Positions

Harold B Dodd

Owner: ACBL River Operations LLC, Jeffersonville, IN. More information available from US FCC via Universal Licensing System and Coast Guard Vessel Documentation Center.

Last reported at 2018-Jan-08 08:50 UTC. Time now 2018-Jan-18 07:30 UTC.
Position N 31°60' W 091°06'.
Warning: this ship's position is 9 days out of date.

Length 57 m; draft 3.6 m.

Type: Towing. MMSI: 367702150.

Date/timePositionNaut miles runAvg speedWind from/ knotsBaromVisibWave heightAir tempDewpointWater temp
2018-Jan-08 08:50N 31°60' W 091°06'3 7.9
2018-Jan-08 08:30N 32°02' W 091°04'4 7.1
2018-Jan-08 08:00N 32°05' W 091°05'3 5.6
2018-Jan-08 07:30N 32°08' W 091°05'4 7.6
2018-Jan-08 07:00N 32°07' W 091°01'4 8.2
2018-Jan-08 06:30N 32°11' W 090°60'4 8.4
2018-Jan-08 06:00N 32°15' W 090°58'4 8.0
2018-Jan-08 05:30N 32°18' W 090°55'3 5.7
2018-Jan-08 05:00N 32°21' W 090°56'4 7.2
2018-Jan-08 04:30N 32°22' W 091°00'4 7.1
2018-Jan-08 04:00N 32°25' W 091°00'4 7.8
2018-Jan-08 03:30N 32°27' W 091°05'4 7.2
2018-Jan-08 03:00N 32°30' W 091°07'4 7.9
2018-Jan-08 02:30N 32°34' W 091°06'4 7.8
2018-Jan-08 02:00N 32°37' W 091°09'8 6.0
2018-Jan-08 00:37N 32°44' W 091°03'  
Track history (hours):
 
Tides and Currents Weather Stations Pressure Air Temp Water Temp Dewpoint Dewpoint Depression Visibility Wind Speed Wind Dir Waves Ship Positions

Harold B Dodd

Owner: ACBL River Operations LLC, Jeffersonville, IN. More information available from US FCC via Universal Licensing System and Coast Guard Vessel Documentation Center.

Last reported at 2018-Jan-08 08:50 UTC. Time now 2018-Jan-18 07:30 UTC.
Position N 31°60' W 091°06'.
Warning: this ship's position is 9 days out of date.

Length 57 m; draft 3.6 m.

Type: Towing. MMSI: 367702150.

Date/timePositionNaut miles runAvg speedWind from/ knotsBaromVisibWave heightAir tempDewpointWater temp
2018-Jan-08 08:50N 31°60' W 091°06'3 7.9
2018-Jan-08 08:30N 32°02' W 091°04'4 7.1
2018-Jan-08 08:00N 32°05' W 091°05'3 5.6
2018-Jan-08 07:30N 32°08' W 091°05'4 7.6
2018-Jan-08 07:00N 32°07' W 091°01'4 8.2
2018-Jan-08 06:30N 32°11' W 090°60'4 8.4
2018-Jan-08 06:00N 32°15' W 090°58'4 8.0
2018-Jan-08 05:30N 32°18' W 090°55'3 5.7
2018-Jan-08 05:00N 32°21' W 090°56'4 7.2
2018-Jan-08 04:30N 32°22' W 091°00'4 7.1
2018-Jan-08 04:00N 32°25' W 091°00'4 7.8
2018-Jan-08 03:30N 32°27' W 091°05'4 7.2
2018-Jan-08 03:00N 32°30' W 091°07'4 7.9
2018-Jan-08 02:30N 32°34' W 091°06'4 7.8
2018-Jan-08 02:00N 32°37' W 091°09'8 6.0
2018-Jan-08 00:37N 32°44' W 091°03'  

Dump ship's entire track history